Time;durP1;ratioP1;P1;durP2;ratioP2;P2;SDS_P1;SDS_P2;PMS_P1;PMS_P2;Temp;Humidity;BMP_temperature;BMP_pressure;BME280_temperature;BME280_humidity;BME280_pressure;Samples;Min_cycle;Max_cycle;Signal;HPM_P1;HPM_P2
2021/05/12 00:02:19;;;;;;;3.03;1.50;;;;;;;;;;5092448;28;20471;-81
2021/05/12 00:04:46;;;;;;;1.92;1.63;;;;;;;;;;5092580;28;20081;-80
2021/05/12 00:07:12;;;;;;;2.33;1.90;;;;;;;;;;5091147;28;20498;-82
2021/05/12 00:09:38;;;;;;;4.72;1.85;;;;;;;;;;5092210;28;20425;-86
2021/05/12 00:12:05;;;;;;;2.45;1.90;;;;;;;;;;5092463;28;20417;-81
2021/05/12 00:14:31;;;;;;;4.70;2.00;;;;;;;;;;5092072;28;20062;-78
2021/05/12 00:17:00;;;;;;;2.72;1.85;;;;;;;;;;5095247;28;20062;-82
2021/05/12 00:19:27;;;;;;;3.28;1.70;;;;;;;;;;5096354;28;20475;-81
2021/05/12 00:22:02;;;;;;;2.75;2.00;;;;;;;;;;5096539;28;20068;-84
2021/05/12 00:24:28;;;;;;;3.58;1.80;;;;;;;;;;5096239;28;20044;-85
2021/05/12 00:26:55;;;;;;;2.00;1.80;;;;;;;;;;5096702;28;20058;-82
2021/05/12 00:29:21;;;;;;;4.82;1.90;;;;;;;;;;5096395;28;20028;-86
2021/05/12 00:31:47;;;;;;;3.13;1.42;;;;;;;;;;5096501;28;20475;-82
2021/05/12 00:34:13;;;;;;;2.22;1.02;;;;;;;;;;5096268;28;20020;-81
2021/05/12 00:36:39;;;;;;;2.75;1.40;;;;;;;;;;5096195;28;20039;-81
2021/05/12 00:39:06;;;;;;;2.60;1.40;;;;;;;;;;5096282;28;20027;-80
2021/05/12 00:41:36;;;;;;;2.75;1.38;;;;;;;;;;5095862;28;20078;-87
2021/05/12 00:44:02;;;;;;;3.30;2.22;;;;;;;;;;5096244;28;20039;-86
2021/05/12 00:46:28;;;;;;;1.55;1.35;;;;;;;;;;5095900;28;20083;-80
2021/05/12 00:48:54;;;;;;;3.65;1.52;;;;;;;;;;5096142;28;20038;-82
2021/05/12 00:51:20;;;;;;;3.38;1.45;;;;;;;;;;5096034;28;20032;-78
2021/05/12 00:53:46;;;;;;;3.95;1.45;;;;;;;;;;5096047;28;20032;-81
2021/05/12 00:56:12;;;;;;;3.58;1.65;;;;;;;;;;5096005;28;20024;-85
2021/05/12 00:58:39;;;;;;;3.17;1.40;;;;;;;;;;5095750;28;20081;-80
2021/05/12 01:01:05;;;;;;;6.15;1.83;;;;;;;;;;5096034;28;20550;-88
2021/05/12 01:03:31;;;;;;;3.17;1.83;;;;;;;;;;5095598;28;20479;-83
2021/05/12 01:05:57;;;;;;;3.05;1.23;;;;;;;;;;5095648;28;20545;-81
2021/05/12 01:08:23;;;;;;;3.38;1.73;;;;;;;;;;5095678;28;20024;-85
2021/05/12 01:10:49;;;;;;;4.30;1.77;;;;;;;;;;5095638;28;20072;-84
2021/05/12 01:13:16;;;;;;;3.17;1.42;;;;;;;;;;5095659;28;20113;-86
2021/05/12 01:15:42;;;;;;;2.70;1.50;;;;;;;;;;5094187;28;20020;-83
2021/05/12 01:18:09;;;;;;;3.30;1.67;;;;;;;;;;5095604;28;20103;-85
2021/05/12 01:20:47;;;;;;;3.65;1.85;;;;;;;;;;5095234;28;20060;-80
2021/05/12 01:23:14;;;;;;;3.10;1.45;;;;;;;;;;5095430;28;20047;-81
2021/05/12 01:25:40;;;;;;;1.92;1.33;;;;;;;;;;5095317;28;20040;-89
2021/05/12 01:28:06;;;;;;;2.47;1.40;;;;;;;;;;5095106;28;20119;-80
2021/05/12 01:30:32;;;;;;;2.95;1.63;;;;;;;;;;5094936;28;20028;-84
2021/05/12 01:33:00;;;;;;;4.40;1.70;;;;;;;;;;5094101;28;20028;-80
2021/05/12 01:35:27;;;;;;;3.80;1.63;;;;;;;;;;5095059;28;20398;-85
2021/05/12 01:37:53;;;;;;;3.88;2.03;;;;;;;;;;5095260;28;20051;-84
2021/05/12 01:40:19;;;;;;;3.88;1.90;;;;;;;;;;5095064;28;20028;-78
2021/05/12 01:42:45;;;;;;;5.00;2.08;;;;;;;;;;5093634;28;20550;-88
2021/05/12 01:45:12;;;;;;;2.05;1.42;;;;;;;;;;5095082;28;20032;-81
2021/05/12 01:47:38;;;;;;;2.08;1.80;;;;;;;;;;5094833;28;20027;-83
2021/05/12 01:50:06;;;;;;;5.00;1.98;;;;;;;;;;5095085;28;20039;-81
2021/05/12 01:52:36;;;;;;;3.22;2.40;;;;;;;;;;5094646;28;20020;-82
2021/05/12 01:55:02;;;;;;;3.25;2.50;;;;;;;;;;5094915;28;20035;-78
2021/05/12 01:57:28;;;;;;;4.43;2.90;;;;;;;;;;5093244;28;20028;-83
2021/05/12 01:59:54;;;;;;;5.43;2.30;;;;;;;;;;5094738;28;20027;-83
2021/05/12 02:02:20;;;;;;;3.45;2.58;;;;;;;;;;5094744;28;20028;-81
2021/05/12 02:04:47;;;;;;;3.33;2.20;;;;;;;;;;5094560;28;20062;-82
2021/05/12 02:07:14;;;;;;;3.63;2.90;;;;;;;;;;5094798;28;20058;-81
2021/05/12 02:09:42;;;;;;;6.97;4.00;;;;;;;;;;5094260;28;20462;-79
2021/05/12 02:12:08;;;;;;;6.18;4.03;;;;;;;;;;5094552;28;20462;-80
2021/05/12 02:14:34;;;;;;;8.07;4.50;;;;;;;;;;5094220;28;20056;-85
2021/05/12 02:17:01;;;;;;;7.03;5.05;;;;;;;;;;5094485;28;20051;-82
2021/05/12 02:19:27;;;;;;;4.80;3.70;;;;;;;;;;5092863;28;20036;-84
2021/05/12 02:21:53;;;;;;;5.85;3.17;;;;;;;;;;5094296;28;20123;-83
2021/05/12 02:24:19;;;;;;;5.32;3.20;;;;;;;;;;5094288;28;20020;-84
2021/05/12 02:26:45;;;;;;;4.45;3.10;;;;;;;;;;5094096;28;20028;-83
2021/05/12 02:29:11;;;;;;;6.05;3.10;;;;;;;;;;5094241;28;20032;-81
2021/05/12 02:31:37;;;;;;;5.80;2.75;;;;;;;;;;5093765;28;20467;-83
2021/05/12 02:34:04;;;;;;;5.32;3.20;;;;;;;;;;5094255;28;20054;-86
2021/05/12 02:36:30;;;;;;;4.95;3.05;;;;;;;;;;5094088;28;20078;-81
2021/05/12 02:38:56;;;;;;;5.35;3.10;;;;;;;;;;5093161;28;20024;-81
2021/05/12 02:41:22;;;;;;;4.95;2.78;;;;;;;;;;5093901;28;20024;-81
2021/05/12 02:43:48;;;;;;;5.13;3.38;;;;;;;;;;5093712;28;20177;-81
2021/05/12 02:46:14;;;;;;;7.20;2.70;;;;;;;;;;5093928;28;20040;-82
2021/05/12 02:48:40;;;;;;;4.88;2.50;;;;;;;;;;5093628;28;20028;-81
2021/05/12 02:51:07;;;;;;;4.00;2.30;;;;;;;;;;5093751;28;20382;-83
2021/05/12 02:53:33;;;;;;;4.03;2.95;;;;;;;;;;5093687;28;20034;-81
2021/05/12 02:55:59;;;;;;;4.68;3.55;;;;;;;;;;5093399;28;20028;-81
2021/05/12 02:58:25;;;;;;;4.15;3.03;;;;;;;;;;5093528;28;20028;-81
2021/05/12 03:00:51;;;;;;;8.65;4.75;;;;;;;;;;5093452;28;20031;-77
2021/05/12 03:03:17;;;;;;;6.63;3.67;;;;;;;;;;5092325;28;20380;-77
2021/05/12 03:05:43;;;;;;;6.20;3.47;;;;;;;;;;5091990;28;20118;-83
2021/05/12 03:08:10;;;;;;;5.45;3.28;;;;;;;;;;5093559;28;20028;-81
2021/05/12 03:10:36;;;;;;;4.03;3.03;;;;;;;;;;5093304;28;20028;-81
2021/05/12 03:13:03;;;;;;;4.90;2.95;;;;;;;;;;5093276;28;20032;-83
2021/05/12 03:15:30;;;;;;;5.50;3.60;;;;;;;;;;5093247;28;20117;-78
2021/05/12 03:17:57;;;;;;;4.65;2.72;;;;;;;;;;5093143;28;20054;-83
2021/05/12 03:20:23;;;;;;;5.38;2.63;;;;;;;;;;5093235;28;20036;-81
2021/05/12 03:22:50;;;;;;;4.20;2.47;;;;;;;;;;5092734;28;20552;-84
2021/05/12 03:25:16;;;;;;;5.22;2.65;;;;;;;;;;5093091;28;20036;-83
2021/05/12 03:27:44;;;;;;;6.25;3.05;;;;;;;;;;5092993;28;20485;-81
2021/05/12 03:30:12;;;;;;;7.28;3.00;;;;;;;;;;5092987;28;20032;-79
2021/05/12 03:32:38;;;;;;;5.95;2.85;;;;;;;;;;5092890;28;20391;-84
2021/05/12 03:35:05;;;;;;;5.68;2.90;;;;;;;;;;5092915;28;20050;-81
2021/05/12 03:37:32;;;;;;;11.40;3.95;;;;;;;;;;5092840;28;20557;-84
2021/05/12 03:39:58;;;;;;;8.63;4.40;;;;;;;;;;5092782;28;20418;-81
2021/05/12 03:42:24;;;;;;;5.43;3.00;;;;;;;;;;5092817;28;20028;-82
2021/05/12 03:44:50;;;;;;;6.82;2.85;;;;;;;;;;5092811;28;20036;-82
2021/05/12 03:47:16;;;;;;;9.32;4.35;;;;;;;;;;5091623;28;20024;-81
2021/05/12 03:49:42;;;;;;;4.07;2.38;;;;;;;;;;5092671;28;20073;-85
2021/05/12 03:52:08;;;;;;;5.00;3.03;;;;;;;;;;5092553;28;20024;-79
2021/05/12 03:54:35;;;;;;;3.80;3.42;;;;;;;;;;5092617;28;20016;-85
2021/05/12 03:57:01;;;;;;;4.63;3.00;;;;;;;;;;5092502;28;20077;-82
2021/05/12 03:59:27;;;;;;;8.20;4.35;;;;;;;;;;5092774;28;20032;-83
2021/05/12 04:01:53;;;;;;;5.50;3.60;;;;;;;;;;5092519;28;20478;-80
2021/05/12 04:04:19;;;;;;;6.97;3.65;;;;;;;;;;5092601;28;20055;-84
2021/05/12 04:06:48;;;;;;;6.45;3.58;;;;;;;;;;5092452;28;20032;-83
2021/05/12 04:09:15;;;;;;;6.85;3.65;;;;;;;;;;5092255;28;20035;-82
2021/05/12 04:11:44;;;;;;;10.43;4.07;;;;;;;;;;5092522;28;20021;-83
2021/05/12 04:14:10;;;;;;;5.93;3.78;;;;;;;;;;5092340;28;20060;-84
2021/05/12 04:16:36;;;;;;;10.45;4.07;;;;;;;;;;5092623;28;20028;-78
2021/05/12 04:19:03;;;;;;;5.80;3.63;;;;;;;;;;5092577;28;20024;-79
2021/05/12 04:21:30;;;;;;;8.73;3.88;;;;;;;;;;5092938;28;20071;-82
2021/05/12 04:23:56;;;;;;;7.15;3.28;;;;;;;;;;5093052;28;20032;-81
2021/05/12 04:26:23;;;;;;;6.22;4.05;;;;;;;;;;5092577;28;20036;-78
2021/05/12 04:28:49;;;;;;;4.25;3.38;;;;;;;;;;5092927;28;20024;-82
2021/05/12 04:31:15;;;;;;;6.13;3.03;;;;;;;;;;5092474;28;20060;-80
2021/05/12 04:33:41;;;;;;;6.57;3.30;;;;;;;;;;5092717;28;20111;-81
2021/05/12 04:36:07;;;;;;;5.57;3.55;;;;;;;;;;5092387;28;20099;-85
2021/05/12 04:38:34;;;;;;;9.98;3.63;;;;;;;;;;5092458;28;20031;-80
2021/05/12 04:41:00;;;;;;;9.50;4.53;;;;;;;;;;5092249;28;20024;-82
2021/05/12 04:43:26;;;;;;;10.65;5.20;;;;;;;;;;5092145;28;20356;-79
2021/05/12 04:45:53;;;;;;;11.20;5.72;;;;;;;;;;5092138;28;20039;-82
2021/05/12 04:48:19;;;;;;;10.57;5.50;;;;;;;;;;5092010;28;20020;-81
2021/05/12 04:50:45;;;;;;;12.80;5.75;;;;;;;;;;5092257;28;20093;-79
2021/05/12 04:53:11;;;;;;;14.15;6.78;;;;;;;;;;5092113;28;20028;-80
2021/05/12 04:55:37;;;;;;;11.35;6.20;;;;;;;;;;5092146;28;20442;-83
2021/05/12 04:58:04;;;;;;;8.10;4.50;;;;;;;;;;5092061;28;20031;-79
2021/05/12 05:00:30;;;;;;;10.00;6.22;;;;;;;;;;5092182;28;20024;-82
2021/05/12 05:02:56;;;;;;;10.77;4.72;;;;;;;;;;5094585;28;20596;-79
2021/05/12 05:05:24;;;;;;;9.00;4.60;;;;;;;;;;5095827;28;20356;-79
2021/05/12 05:07:50;;;;;;;9.80;5.45;;;;;;;;;;5095841;28;20026;-81
2021/05/12 05:10:17;;;;;;;7.00;4.53;;;;;;;;;;5095579;28;20521;-80
2021/05/12 05:12:43;;;;;;;7.85;3.60;;;;;;;;;;5095775;28;20062;-78
2021/05/12 05:15:09;;;;;;;6.18;3.53;;;;;;;;;;5095639;28;20032;-79
2021/05/12 05:17:35;;;;;;;6.18;3.78;;;;;;;;;;5095251;28;20031;-80
2021/05/12 05:20:03;;;;;;;9.43;5.38;;;;;;;;;;5095197;28;20498;-80
2021/05/12 05:22:30;;;;;;;5.28;2.40;;;;;;;;;;5093492;28;20135;-78
2021/05/12 05:24:56;;;;;;;6.95;2.80;;;;;;;;;;5095351;28;20070;-80
2021/05/12 05:27:23;;;;;;;8.85;3.10;;;;;;;;;;5094767;28;20024;-78
2021/05/12 05:29:49;;;;;;;5.88;3.20;;;;;;;;;;5094677;28;20020;-78
2021/05/12 05:32:16;;;;;;;6.43;2.72;;;;;;;;;;5094485;28;20055;-77
2021/05/12 05:34:42;;;;;;;3.65;2.38;;;;;;;;;;5093725;28;20024;-78
2021/05/12 05:37:08;;;;;;;6.65;2.50;;;;;;;;;;5094611;28;20030;-80
2021/05/12 05:39:37;;;;;;;5.28;2.60;;;;;;;;;;5092835;28;20073;-79
2021/05/12 05:42:07;;;;;;;4.72;2.60;;;;;;;;;;5093340;28;20075;-78
2021/05/12 05:44:34;;;;;;;11.20;8.98;;;;;;;;;;5093608;28;20429;-79
2021/05/12 05:47:00;;;;;;;16.02;12.48;;;;;;;;;;5093137;28;20036;-79
2021/05/12 05:49:27;;;;;;;24.40;17.77;;;;;;;;;;5093802;28;20119;-79
2021/05/12 05:51:53;;;;;;;13.15;9.93;;;;;;;;;;5093547;28;20085;-80
2021/05/12 05:54:20;;;;;;;5.60;3.42;;;;;;;;;;5093626;28;20098;-80
2021/05/12 05:56:46;;;;;;;6.65;3.35;;;;;;;;;;5092868;28;20384;-80
2021/05/12 05:59:12;;;;;;;4.38;2.22;;;;;;;;;;5093088;28;20414;-80
2021/05/12 06:01:38;;;;;;;6.85;2.00;;;;;;;;;;5093243;28;20036;-78
2021/05/12 06:04:05;;;;;;;6.70;2.47;;;;;;;;;;5093064;28;20054;-78
2021/05/12 06:06:31;;;;;;;2.47;1.52;;;;;;;;;;5092997;28;20028;-77
2021/05/12 06:08:57;;;;;;;3.72;1.58;;;;;;;;;;5092036;28;20103;-79
2021/05/12 06:11:23;;;;;;;11.18;2.17;;;;;;;;;;5088148;28;20051;-80
2021/05/12 06:13:50;;;;;;;4.57;1.85;;;;;;;;;;5071621;28;20021;-79
2021/05/12 06:16:17;;;;;;;3.78;2.03;;;;;;;;;;5072940;28;20025;-80
2021/05/12 06:18:44;;;;;;;6.30;1.80;;;;;;;;;;5072649;28;20017;-80
2021/05/12 06:21:11;;;;;;;5.18;2.25;;;;;;;;;;5072316;28;20040;-81
2021/05/12 06:23:37;;;;;;;5.53;1.85;;;;;;;;;;5072685;28;20028;-78
2021/05/12 06:26:12;;;;;;;3.45;1.95;;;;;;;;;;5071846;28;20032;-78
2021/05/12 06:28:38;;;;;;;4.53;1.63;;;;;;;;;;5072110;28;20189;-79
2021/05/12 06:31:04;;;;;;;15.10;2.28;;;;;;;;;;5072543;28;20024;-79
2021/05/12 06:33:30;;;;;;;11.05;2.30;;;;;;;;;;5074580;28;20055;-80
2021/05/12 06:35:56;;;;;;;3.25;1.77;;;;;;;;;;5092408;28;20028;-79
2021/05/12 06:38:23;;;;;;;7.43;2.78;;;;;;;;;;5091058;28;20471;-80
2021/05/12 06:40:50;;;;;;;8.02;4.03;;;;;;;;;;5091932;28;20035;-78
2021/05/12 06:43:16;;;;;;;5.00;1.73;;;;;;;;;;5092374;28;20063;-78
2021/05/12 06:45:42;;;;;;;6.20;2.50;;;;;;;;;;5092622;28;20092;-80
2021/05/12 06:48:08;;;;;;;4.43;3.35;;;;;;;;;;5092212;28;20027;-81
2021/05/12 06:50:34;;;;;;;17.95;10.02;;;;;;;;;;5092389;28;20035;-80
2021/05/12 06:53:01;;;;;;;6.97;3.63;;;;;;;;;;5092421;28;20031;-80
2021/05/12 06:55:27;;;;;;;3.85;2.78;;;;;;;;;;5092028;28;20532;-81
2021/05/12 06:57:53;;;;;;;3.25;2.00;;;;;;;;;;5089969;28;20024;-78
2021/05/12 07:00:20;;;;;;;10.57;3.33;;;;;;;;;;5079006;28;20582;-79
2021/05/12 07:02:47;;;;;;;6.07;2.30;;;;;;;;;;5070657;28;20062;-79
2021/05/12 07:07:58;;;;;;;36.28;22.83;;;;;;;;;;5072135;28;20086;-81
2021/05/12 07:10:24;;;;;;;9.00;2.45;;;;;;;;;;5069936;28;20024;-79
2021/05/12 07:12:50;;;;;;;5.80;1.75;;;;;;;;;;5071568;28;20060;-76
2021/05/12 07:15:16;;;;;;;5.05;2.08;;;;;;;;;;5071610;28;20024;-80
2021/05/12 07:17:42;;;;;;;3.50;1.50;;;;;;;;;;5071619;28;20024;-82
2021/05/12 07:20:09;;;;;;;7.28;1.92;;;;;;;;;;5071655;28;20440;-79
2021/05/12 07:22:35;;;;;;;4.20;1.83;;;;;;;;;;5071252;28;20056;-78
2021/05/12 07:25:01;;;;;;;4.43;2.03;;;;;;;;;;5071057;28;20060;-79
2021/05/12 07:27:28;;;;;;;11.00;2.47;;;;;;;;;;5071140;28;20042;-77
2021/05/12 07:29:54;;;;;;;5.32;2.90;;;;;;;;;;5071641;28;20103;-78
2021/05/12 07:32:20;;;;;;;4.25;1.58;;;;;;;;;;5070626;28;20388;-79
2021/05/12 07:34:51;;;;;;;3.33;1.60;;;;;;;;;;5084112;28;20099;-77
2021/05/12 07:37:17;;;;;;;20.92;2.53;;;;;;;;;;5091182;28;20103;-82
2021/05/12 07:39:43;;;;;;;5.38;1.63;;;;;;;;;;5091083;28;20028;-78
2021/05/12 07:42:11;;;;;;;9.20;2.60;;;;;;;;;;5091066;28;20032;-77
2021/05/12 07:44:37;;;;;;;3.72;1.60;;;;;;;;;;5091060;28;20532;-78
2021/05/12 07:47:04;;;;;;;6.68;2.30;;;;;;;;;;5091325;28;20054;-78
2021/05/12 07:49:30;;;;;;;4.70;2.03;;;;;;;;;;5091114;28;20044;-78
2021/05/12 07:51:57;;;;;;;4.45;1.90;;;;;;;;;;5090338;28;20039;-78
2021/05/12 07:54:23;;;;;;;3.05;1.60;;;;;;;;;;5091108;28;20028;-78
2021/05/12 07:56:49;;;;;;;5.00;1.75;;;;;;;;;;5091056;28;20437;-78
2021/05/12 07:59:16;;;;;;;10.85;2.33;;;;;;;;;;5091446;28;20027;-78
2021/05/12 08:01:45;;;;;;;7.38;2.45;;;;;;;;;;5090743;28;20104;-79
2021/05/12 08:04:11;;;;;;;10.05;2.38;;;;;;;;;;5091109;28;20576;-78
2021/05/12 08:06:37;;;;;;;4.28;1.60;;;;;;;;;;5090825;28;20036;-80
2021/05/12 08:09:05;;;;;;;13.05;3.63;;;;;;;;;;5091263;28;20024;-79
2021/05/12 08:11:31;;;;;;;6.53;3.00;;;;;;;;;;5090656;28;20031;-78
2021/05/12 08:13:57;;;;;;;4.95;2.85;;;;;;;;;;5091380;28;20430;-79
2021/05/12 08:16:23;;;;;;;3.85;1.48;;;;;;;;;;5090793;28;20475;-79
2021/05/12 08:18:49;;;;;;;3.75;1.40;;;;;;;;;;5090676;28;20115;-79
2021/05/12 08:21:16;;;;;;;3.80;1.98;;;;;;;;;;5089524;28;20386;-79
2021/05/12 08:23:42;;;;;;;6.82;2.90;;;;;;;;;;5090267;28;20029;-77
2021/05/12 08:26:10;;;;;;;5.82;1.83;;;;;;;;;;5090786;28;20036;-77
2021/05/12 08:28:38;;;;;;;19.40;4.05;;;;;;;;;;5089866;28;20024;-78
2021/05/12 08:31:05;;;;;;;5.90;2.67;;;;;;;;;;5090227;28;20576;-81
2021/05/12 08:33:31;;;;;;;8.48;2.75;;;;;;;;;;5089903;28;20430;-79
2021/05/12 08:35:57;;;;;;;7.68;2.92;;;;;;;;;;5089908;28;20134;-77
2021/05/12 08:38:25;;;;;;;3.08;1.50;;;;;;;;;;5093659;28;20450;-79
2021/05/12 08:40:53;;;;;;;2.38;1.65;;;;;;;;;;5094180;28;20035;-80
2021/05/12 08:43:19;;;;;;;6.75;2.95;;;;;;;;;;5092096;28;20109;-80
2021/05/12 08:45:46;;;;;;;7.20;1.80;;;;;;;;;;5094258;28;20070;-79
2021/05/12 08:48:16;;;;;;;4.43;1.58;;;;;;;;;;5094875;28;20039;-80
2021/05/12 08:50:42;;;;;;;11.70;9.70;;;;;;;;;;5094625;28;20024;-83
2021/05/12 08:53:09;;;;;;;13.18;9.43;;;;;;;;;;5094687;28;20024;-79
2021/05/12 08:55:35;;;;;;;3.67;2.42;;;;;;;;;;5094539;28;20039;-80
2021/05/12 08:58:01;;;;;;;19.15;11.82;;;;;;;;;;5094840;28;20494;-78
2021/05/12 09:00:28;;;;;;;12.85;5.15;;;;;;;;;;5094145;28;20047;-79
2021/05/12 09:02:54;;;;;;;11.18;6.32;;;;;;;;;;5094371;28;20034;-79
2021/05/12 09:05:21;;;;;;;5.70;2.28;;;;;;;;;;5094420;28;20046;-79
2021/05/12 09:07:47;;;;;;;5.97;2.08;;;;;;;;;;5094401;28;20540;-78
2021/05/12 09:10:14;;;;;;;3.40;2.00;;;;;;;;;;5094387;28;20092;-78
2021/05/12 09:12:43;;;;;;;14.77;2.60;;;;;;;;;;5094224;28;20086;-78
2021/05/12 09:15:11;;;;;;;4.03;1.90;;;;;;;;;;5093849;28;20044;-78
2021/05/12 09:17:41;;;;;;;4.55;1.63;;;;;;;;;;5094259;28;20039;-78
2021/05/12 09:20:24;;;;;;;5.28;2.70;;;;;;;;;;5094350;28;20032;-78
2021/05/12 09:23:10;;;;;;;3.65;1.60;;;;;;;;;;5093870;28;20067;-79
2021/05/12 09:25:37;;;;;;;6.03;2.20;;;;;;;;;;5092268;28;20129;-78
2021/05/12 09:28:22;;;;;;;8.05;1.75;;;;;;;;;;5094121;28;20032;-79
2021/05/12 09:30:50;;;;;;;5.38;1.90;;;;;;;;;;5093787;28;20028;-78
2021/05/12 09:33:37;;;;;;;4.97;1.95;;;;;;;;;;5093513;28;20099;-78
2021/05/12 09:36:03;;;;;;;5.43;1.80;;;;;;;;;;5093726;28;20020;-79
2021/05/12 09:38:31;;;;;;;4.22;2.00;;;;;;;;;;5093838;28;20024;-79
2021/05/12 09:41:00;;;;;;;6.25;1.40;;;;;;;;;;5091803;28;20478;-78
2021/05/12 09:43:27;;;;;;;12.50;2.35;;;;;;;;;;5085159;28;20032;-78
2021/05/12 09:45:54;;;;;;;5.05;1.60;;;;;;;;;;5093118;28;20028;-79
2021/05/12 09:48:20;;;;;;;2.75;1.40;;;;;;;;;;5092841;28;20020;-78
2021/05/12 09:50:46;;;;;;;6.65;1.50;;;;;;;;;;5092480;28;20024;-78
2021/05/12 09:53:13;;;;;;;10.57;7.50;;;;;;;;;;5093132;28;20374;-78
2021/05/12 09:55:58;;;;;;;3.20;1.73;;;;;;;;;;5092598;28;20039;-77
2021/05/12 09:58:24;;;;;;;4.10;1.45;;;;;;;;;;5089892;28;20081;-80
2021/05/12 10:00:52;;;;;;;2.92;1.20;;;;;;;;;;5092456;28;20032;-78
2021/05/12 10:03:22;;;;;;;3.63;1.45;;;;;;;;;;5092328;28;20471;-79
2021/05/12 10:05:50;;;;;;;8.18;2.13;;;;;;;;;;5089633;28;20040;-79
2021/05/12 10:08:26;;;;;;;10.25;2.10;;;;;;;;;;5092657;28;20046;-79
2021/05/12 10:11:02;;;;;;;3.38;1.60;;;;;;;;;;5091482;28;20386;-78
2021/05/12 10:13:29;;;;;;;7.40;1.80;;;;;;;;;;5092382;28;20386;-78
2021/05/12 10:15:56;;;;;;;5.60;3.22;;;;;;;;;;5092931;28;20024;-77
2021/05/12 10:18:22;;;;;;;6.47;3.22;;;;;;;;;;5092945;28;20483;-78
2021/05/12 10:20:49;;;;;;;26.55;4.85;;;;;;;;;;5092300;28;20032;-78
2021/05/12 10:23:16;;;;;;;2.67;1.90;;;;;;;;;;5092657;28;20495;-78
2021/05/12 10:25:42;;;;;;;7.43;2.08;;;;;;;;;;5092446;28;20040;-77
2021/05/12 10:28:08;;;;;;;8.02;2.85;;;;;;;;;;5089741;28;20483;-78
2021/05/12 10:30:35;;;;;;;7.25;4.22;;;;;;;;;;5080092;28;20507;-78
2021/05/12 10:33:01;;;;;;;11.10;7.90;;;;;;;;;;5083079;28;20029;-77
2021/05/12 10:35:35;;;;;;;5.90;3.28;;;;;;;;;;5090576;28;20024;-77
2021/05/12 10:38:02;;;;;;;3.10;1.20;;;;;;;;;;5092660;28;20024;-77
2021/05/12 10:40:31;;;;;;;3.42;1.02;;;;;;;;;;5092771;28;20413;-77
2021/05/12 10:43:03;;;;;;;2.17;0.85;;;;;;;;;;5092171;28;20117;-78
2021/05/12 10:45:52;;;;;;;2.80;1.20;;;;;;;;;;5073065;28;20392;-79
2021/05/12 10:48:37;;;;;;;6.40;1.35;;;;;;;;;;5072382;28;20033;-78
2021/05/12 10:51:05;;;;;;;4.22;1.23;;;;;;;;;;5071888;28;20107;-78
2021/05/12 10:53:42;;;;;;;6.57;1.30;;;;;;;;;;5076418;28;20028;-80
2021/05/12 10:56:08;;;;;;;5.72;1.30;;;;;;;;;;5089549;28;20024;-79
2021/05/12 10:58:53;;;;;;;9.90;1.70;;;;;;;;;;5082494;28;20067;-78
2021/05/12 11:01:19;;;;;;;7.35;1.30;;;;;;;;;;5088167;28;20027;-78
2021/05/12 11:03:52;;;;;;;5.28;1.17;;;;;;;;;;5090773;28;20566;-79
2021/05/12 11:06:18;;;;;;;2.22;1.10;;;;;;;;;;5091665;28;20181;-77
2021/05/12 11:09:06;;;;;;;7.22;1.90;;;;;;;;;;5076578;28;20095;-77
2021/05/12 11:11:32;;;;;;;4.82;1.27;;;;;;;;;;5091422;28;20028;-78
2021/05/12 11:14:17;;;;;;;4.00;1.15;;;;;;;;;;5077773;28;20387;-79
2021/05/12 11:17:01;;;;;;;4.50;0.90;;;;;;;;;;5082067;28;20123;-78
2021/05/12 11:19:51;;;;;;;6.93;1.73;;;;;;;;;;5069672;28;20107;-80
2021/05/12 11:22:43;;;;;;;4.43;1.60;;;;;;;;;;5071357;28;20071;-77
2021/05/12 11:28:14;;;;;;;10.82;1.98;;;;;;;;;;5070948;28;20542;-77
2021/05/12 11:33:30;;;;;;;8.25;2.97;;;;;;;;;;5074020;28;20692;-81
2021/05/12 11:36:06;;;;;;;8.48;2.30;;;;;;;;;;5090818;28;20105;-77
2021/05/12 11:38:33;;;;;;;2.15;1.20;;;;;;;;;;5084410;28;20055;-80
2021/05/12 11:41:04;;;;;;;3.47;1.73;;;;;;;;;;5078883;28;20025;-78
2021/05/12 11:43:42;;;;;;;5.53;2.00;;;;;;;;;;5083065;28;20036;-79
2021/05/12 11:46:11;;;;;;;31.60;3.88;;;;;;;;;;5090527;28;20036;-78
2021/05/12 11:48:42;;;;;;;3.58;1.40;;;;;;;;;;5089328;28;20024;-79
2021/05/12 11:51:09;;;;;;;6.30;1.20;;;;;;;;;;5081958;28;20165;-78
2021/05/12 11:53:36;;;;;;;7.07;3.70;;;;;;;;;;5070468;28;20040;-79
2021/05/12 11:56:02;;;;;;;13.68;5.90;;;;;;;;;;5071350;28;20024;-77
2021/05/12 11:58:29;;;;;;;17.55;4.05;;;;;;;;;;5091008;28;20028;-78
2021/05/12 12:01:03;;;;;;;5.88;2.10;;;;;;;;;;5084033;28;20032;-77
2021/05/12 12:03:30;;;;;;;8.38;4.22;;;;;;;;;;5090715;28;20028;-78
2021/05/12 12:06:03;;;;;;;4.45;1.80;;;;;;;;;;5090795;28;20097;-78
2021/05/12 12:08:30;;;;;;;6.80;2.27;;;;;;;;;;5091013;28;20038;-79
2021/05/12 12:11:05;;;;;;;10.25;2.05;;;;;;;;;;5087986;28;20304;-78
2021/05/12 12:13:31;;;;;;;6.20;1.30;;;;;;;;;;5070617;28;20031;-77
2021/05/12 12:15:57;;;;;;;2.45;1.05;;;;;;;;;;5076463;28;20024;-78
2021/05/12 12:18:27;;;;;;;7.70;1.50;;;;;;;;;;5089144;28;20394;-78
2021/05/12 12:20:53;;;;;;;5.85;1.52;;;;;;;;;;5090247;28;20044;-79
2021/05/12 12:23:26;;;;;;;7.80;1.95;;;;;;;;;;5080042;28;20075;-78
2021/05/12 12:26:17;;;;;;;20.30;14.25;;;;;;;;;;5090740;28;20386;-78
2021/05/12 12:28:53;;;;;;;39.30;12.70;;;;;;;;;;5088848;28;20034;-80
2021/05/12 12:31:25;;;;;;;10.98;4.40;;;;;;;;;;5086047;28;20375;-77
2021/05/12 12:34:09;;;;;;;7.13;2.60;;;;;;;;;;5084460;28;20035;-79
2021/05/12 12:36:55;;;;;;;6.85;1.40;;;;;;;;;;5085881;28;20040;-77
2021/05/12 12:39:22;;;;;;;10.57;1.95;;;;;;;;;;5082094;28;20036;-77
2021/05/12 12:41:52;;;;;;;3.92;1.10;;;;;;;;;;5070269;28;20361;-77
2021/05/12 12:44:19;;;;;;;11.48;3.13;;;;;;;;;;5072176;28;20052;-77
2021/05/12 12:46:57;;;;;;;14.32;8.98;;;;;;;;;;5091668;28;20107;-78
2021/05/12 12:49:33;;;;;;;7.05;1.70;;;;;;;;;;5091488;28;20039;-79
2021/05/12 12:52:08;;;;;;;6.68;1.00;;;;;;;;;;5087382;28;20036;-80
2021/05/12 12:54:41;;;;;;;3.78;1.35;;;;;;;;;;5092003;28;20055;-78
2021/05/12 12:57:07;;;;;;;7.37;1.70;;;;;;;;;;5088914;28;20028;-79
2021/05/12 12:59:33;;;;;;;2.72;1.45;;;;;;;;;;5078309;28;20035;-80
2021/05/12 13:02:04;;;;;;;8.43;1.30;;;;;;;;;;5090682;28;20024;-78
2021/05/12 13:04:31;;;;;;;8.77;1.52;;;;;;;;;;5071126;28;20059;-78
2021/05/12 13:07:04;;;;;;;4.43;1.52;;;;;;;;;;5071576;28;20058;-77
2021/05/12 13:09:30;;;;;;;4.68;1.80;;;;;;;;;;5072820;28;20033;-78
2021/05/12 13:11:58;;;;;;;3.08;1.20;;;;;;;;;;5082389;28;20046;-77
2021/05/12 13:14:24;;;;;;;6.80;1.40;;;;;;;;;;5078558;28;20024;-78
2021/05/12 13:17:01;;;;;;;6.03;1.35;;;;;;;;;;5088091;28;20017;-79
2021/05/12 13:19:28;;;;;;;6.50;1.52;;;;;;;;;;5091277;28;20028;-78
2021/05/12 13:21:57;;;;;;;6.68;1.65;;;;;;;;;;5091428;28;20060;-78
2021/05/12 13:24:25;;;;;;;11.48;1.98;;;;;;;;;;5094031;28;20115;-80
2021/05/12 13:27:00;;;;;;;4.05;1.42;;;;;;;;;;5095181;28;20028;-79
2021/05/12 13:29:27;;;;;;;11.30;2.10;;;;;;;;;;5094698;28;20081;-78
2021/05/12 13:31:53;;;;;;;5.30;1.33;;;;;;;;;;5094809;28;20502;-76
2021/05/12 13:34:22;;;;;;;4.65;1.50;;;;;;;;;;5094733;28;20341;-80
2021/05/12 13:36:51;;;;;;;7.68;1.75;;;;;;;;;;5093327;28;20038;-79
2021/05/12 13:39:18;;;;;;;3.78;2.10;;;;;;;;;;5077248;28;20508;-79
2021/05/12 13:41:44;;;;;;;4.47;1.73;;;;;;;;;;5074734;28;20412;-81
2021/05/12 13:44:12;;;;;;;5.10;1.83;;;;;;;;;;5074685;28;20111;-80
2021/05/12 13:46:38;;;;;;;3.50;1.55;;;;;;;;;;5082302;28;20039;-80
2021/05/12 13:49:04;;;;;;;7.22;3.28;;;;;;;;;;5093589;28;20119;-80
2021/05/12 13:51:35;;;;;;;12.52;7.80;;;;;;;;;;5094125;28;20069;-79
2021/05/12 13:56:48;;;;;;;12.15;2.80;;;;;;;;;;5094606;28;20177;-80
2021/05/12 14:04:28;;;;;;;8.45;5.03;;;;;;;;;;5094111;28;20039;-80
2021/05/12 14:06:54;;;;;;;8.60;6.68;;;;;;;;;;5094514;28;20051;-81
2021/05/12 14:09:24;;;;;;;8.18;6.05;;;;;;;;;;5082630;28;20513;-81
2021/05/12 14:11:57;;;;;;;5.20;2.00;;;;;;;;;;5080835;28;20483;-81
2021/05/12 14:14:46;;;;;;;11.57;2.78;;;;;;;;;;5083015;28;20483;-80
2021/05/12 14:17:20;;;;;;;3.65;1.73;;;;;;;;;;5090307;28;20028;-80
2021/05/12 14:19:46;;;;;;;3.13;1.80;;;;;;;;;;5078879;28;20048;-79
2021/05/12 14:22:12;;;;;;;4.95;1.52;;;;;;;;;;5087161;28;20052;-79
2021/05/12 14:24:39;;;;;;;4.18;1.85;;;;;;;;;;5084825;28;20032;-79
2021/05/12 14:27:05;;;;;;;4.10;1.40;;;;;;;;;;5074079;28;20036;-77
2021/05/12 14:29:41;;;;;;;5.60;1.85;;;;;;;;;;5073841;28;20039;-77
2021/05/12 14:32:09;;;;;;;4.95;2.08;;;;;;;;;;5085884;28;20387;-79
2021/05/12 14:34:36;;;;;;;8.45;2.17;;;;;;;;;;5090655;28;20115;-79
2021/05/12 14:37:02;;;;;;;6.22;2.20;;;;;;;;;;5082769;28;20035;-80
2021/05/12 14:39:33;;;;;;;21.77;3.85;;;;;;;;;;5094055;28;20028;-79
2021/05/12 14:42:00;;;;;;;8.65;2.40;;;;;;;;;;5094257;28;20074;-79
2021/05/12 14:44:26;;;;;;;3.83;1.95;;;;;;;;;;5093916;28;20038;-78
2021/05/12 14:46:52;;;;;;;2.92;2.17;;;;;;;;;;5093434;28;20039;-80
2021/05/12 14:49:20;;;;;;;5.10;2.03;;;;;;;;;;5093941;28;20115;-80
2021/05/12 14:54:37;;;;;;;8.75;2.70;;;;;;;;;;5092263;28;20043;-79
2021/05/12 14:57:29;;;;;;;4.07;2.00;;;;;;;;;;5088138;28;20091;-81
2021/05/12 15:00:05;;;;;;;7.45;3.53;;;;;;;;;;5072722;28;20042;-79
2021/05/12 15:02:40;;;;;;;5.57;3.60;;;;;;;;;;5073302;28;20025;-80
2021/05/12 15:07:47;;;;;;;2.70;1.63;;;;;;;;;;5072988;28;20028;-81
2021/05/12 15:10:13;;;;;;;5.55;2.08;;;;;;;;;;5079498;28;20066;-80